Time;durP1;ratioP1;P1;durP2;ratioP2;P2;SDS_P1;SDS_P2;PMS_P1;PMS_P2;Temp;Humidity;BMP_temperature;BMP_pressure;BME280_temperature;BME280_humidity;BME280_pressure;Samples;Min_cycle;Max_cycle;Signal;HPM_P1;HPM_P2
2023/06/07 00:00:01;;;;;;;;;;;19.00;68.30;;;;;;5037093;28;19963;-78
2023/06/07 00:02:27;;;;;;;;;;;18.90;68.80;;;;;;5036938;28;19924;-78
2023/06/07 00:04:52;;;;;;;;;;;18.90;68.90;;;;;;5039379;28;19962;-79
2023/06/07 00:07:18;;;;;;;;;;;19.00;68.40;;;;;;5036087;28;19913;-78
2023/06/07 00:09:44;;;;;;;;;;;19.00;68.20;;;;;;5036696;28;19909;-79
2023/06/07 00:12:10;;;;;;;;;;;18.90;68.80;;;;;;5036910;28;19909;-78
2023/06/07 00:14:36;;;;;;;;;;;18.90;68.90;;;;;;5036831;28;19920;-78
2023/06/07 00:17:02;;;;;;;;;;;18.90;69.10;;;;;;5020028;28;19913;-78
2023/06/07 00:19:29;;;;;;;;;;;18.90;68.40;;;;;;5037250;28;20280;-78
2023/06/07 00:21:55;;;;;;;;;;;18.90;68.60;;;;;;5041122;28;19920;-78
2023/06/07 00:24:21;;;;;;;;;;;18.80;68.90;;;;;;5036722;28;19913;-79
2023/06/07 00:26:47;;;;;;;;;;;18.80;68.00;;;;;;5036275;28;20059;-78
2023/06/07 00:29:13;;;;;;;;;;;18.80;68.50;;;;;;5026642;28;19919;-79
2023/06/07 00:31:39;;;;;;;;;;;18.70;68.50;;;;;;5036037;28;19917;-78
2023/06/07 00:34:04;;;;;;;;;;;18.70;68.40;;;;;;5034435;28;19915;-78
2023/06/07 00:36:30;;;;;;;;;;;18.70;68.20;;;;;;5027518;28;20411;-78
2023/06/07 00:38:56;;;;;;;;;;;18.80;67.80;;;;;;5017149;28;19956;-78
2023/06/07 00:41:21;;;;;;;;;;;18.80;68.10;;;;;;5034846;28;19924;-78
2023/06/07 00:43:47;;;;;;;;;;;18.80;67.70;;;;;;5017317;28;19921;-78
2023/06/07 00:46:16;;;;;;;;;;;18.80;67.40;;;;;;5016765;28;19921;-78
2023/06/07 00:48:42;;;;;;;;;;;18.80;67.70;;;;;;5035584;28;19967;-79
2023/06/07 00:51:07;;;;;;;;;;;18.70;67.20;;;;;;5039063;28;19913;-79
2023/06/07 00:53:33;;;;;;;;;;;18.70;67.40;;;;;;5035325;28;19967;-79
2023/06/07 00:55:59;;;;;;;;;;;18.60;67.50;;;;;;5035400;28;19988;-79
2023/06/07 00:58:25;;;;;;;;;;;18.70;67.20;;;;;;5018640;28;19924;-79
2023/06/07 01:00:51;;;;;;;;;;;18.60;67.20;;;;;;5037025;28;19923;-79
2023/06/07 01:03:16;;;;;;;;;;;18.60;67.00;;;;;;5025621;28;19909;-78
2023/06/07 01:05:44;;;;;;;;;;;18.50;67.50;;;;;;5035973;28;20436;-79
2023/06/07 01:08:09;;;;;;;;;;;18.60;66.80;;;;;;5017889;28;19917;-79
2023/06/07 01:10:36;;;;;;;;;;;18.60;66.80;;;;;;5019745;28;19967;-78
2023/06/07 01:13:02;;;;;;;;;;;18.60;66.90;;;;;;5039346;28;19909;-78
2023/06/07 01:15:28;;;;;;;;;;;18.50;67.70;;;;;;5038268;28;19981;-78
2023/06/07 01:17:54;;;;;;;;;;;18.40;67.70;;;;;;5038890;28;19936;-78
2023/06/07 01:20:22;;;;;;;;;;;18.40;67.40;;;;;;5022622;28;20059;-78
2023/06/07 01:22:49;;;;;;;;;;;18.40;67.70;;;;;;5021353;28;19916;-80
2023/06/07 01:25:14;;;;;;;;;;;18.30;67.20;;;;;;5022646;28;19921;-80
2023/06/07 01:27:43;;;;;;;;;;;18.30;67.50;;;;;;5028410;28;19914;-79
2023/06/07 01:30:10;;;;;;;;;;;18.40;67.40;;;;;;5033196;28;19913;-79
2023/06/07 01:32:36;;;;;;;;;;;18.30;67.10;;;;;;5033583;28;20352;-79
2023/06/07 01:35:03;;;;;;;;;;;18.20;67.60;;;;;;5029330;28;20012;-78
2023/06/07 01:37:29;;;;;;;;;;;18.20;67.50;;;;;;5015169;28;20008;-79
2023/06/07 01:39:55;;;;;;;;;;;18.10;68.00;;;;;;5015995;28;19956;-80
2023/06/07 01:42:21;;;;;;;;;;;18.20;67.60;;;;;;5018869;28;19917;-79
2023/06/07 01:44:47;;;;;;;;;;;18.20;67.40;;;;;;5032176;28;19941;-79
2023/06/07 01:47:14;;;;;;;;;;;18.20;67.30;;;;;;5032394;28;19967;-79
2023/06/07 01:49:40;;;;;;;;;;;18.10;67.20;;;;;;5031865;28;19940;-79
2023/06/07 01:52:06;;;;;;;;;;;18.10;67.30;;;;;;5032892;28;19909;-79
2023/06/07 01:54:31;;;;;;;;;;;18.10;67.20;;;;;;5034077;28;19909;-79
2023/06/07 01:57:06;;;;;;;;;;;18.10;67.00;;;;;;5040282;28;19913;-79
2023/06/07 01:59:37;;;;;;;;;;;18.10;67.70;;;;;;5033912;28;19909;-79
2023/06/07 02:02:09;;;;;;;;;;;18.00;67.80;;;;;;5032135;28;19974;-79
2023/06/07 02:04:37;;;;;;;;;;;17.90;68.30;;;;;;5031147;28;19913;-79
2023/06/07 02:07:05;;;;;;;;;;;17.90;67.90;;;;;;5031499;28;19916;-79
2023/06/07 02:09:33;;;;;;;;;;;17.90;67.50;;;;;;5038991;28;19924;-78
2023/06/07 02:12:00;;;;;;;;;;;17.80;68.20;;;;;;5032752;28;20540;-78
2023/06/07 02:14:27;;;;;;;;;;;17.80;68.50;;;;;;5031807;28;19920;-78
2023/06/07 02:16:52;;;;;;;;;;;17.90;68.00;;;;;;5031686;28;19913;-78
2023/06/07 02:19:19;;;;;;;;;;;17.90;68.30;;;;;;5035777;28;19974;-79
2023/06/07 02:21:44;;;;;;;;;;;17.90;68.30;;;;;;5015495;28;19913;-78
2023/06/07 02:24:10;;;;;;;;;;;17.90;68.10;;;;;;5015065;28;19917;-78
2023/06/07 02:26:36;;;;;;;;;;;17.90;67.90;;;;;;5013632;28;19913;-78
2023/06/07 02:29:03;;;;;;;;;;;17.90;67.90;;;;;;5041619;28;19924;-79
2023/06/07 02:31:28;;;;;;;;;;;17.80;68.00;;;;;;5016670;28;19919;-78
2023/06/07 02:33:54;;;;;;;;;;;17.80;67.80;;;;;;5033853;28;20347;-79
2023/06/07 02:36:25;;;;;;;;;;;17.80;67.50;;;;;;5009664;28;19913;-79
2023/06/07 02:38:51;;;;;;;;;;;17.80;68.00;;;;;;5034902;28;19967;-79
2023/06/07 02:41:16;;;;;;;;;;;17.80;67.80;;;;;;5033741;28;19914;-80
2023/06/07 02:43:43;;;;;;;;;;;17.80;68.00;;;;;;5028545;28;19959;-80
2023/06/07 02:46:08;;;;;;;;;;;17.80;67.70;;;;;;5035678;28;20004;-79
2023/06/07 02:48:33;;;;;;;;;;;17.60;68.30;;;;;;5026699;28;19956;-80
2023/06/07 02:50:59;;;;;;;;;;;17.60;68.10;;;;;;5035397;28;19909;-79
2023/06/07 02:53:26;;;;;;;;;;;17.60;68.20;;;;;;5036445;28;19913;-80
2023/06/07 02:55:51;;;;;;;;;;;17.60;68.20;;;;;;5036826;28;19910;-79
2023/06/07 02:58:17;;;;;;;;;;;17.60;68.40;;;;;;5037100;28;19910;-78
2023/06/07 03:00:49;;;;;;;;;;;17.60;68.20;;;;;;5031607;28;19921;-78
2023/06/07 03:03:18;;;;;;;;;;;17.50;68.40;;;;;;5011641;28;19913;-78
2023/06/07 03:05:46;;;;;;;;;;;17.60;67.70;;;;;;5037413;28;19934;-78
2023/06/07 03:08:12;;;;;;;;;;;17.60;67.90;;;;;;5031926;28;19975;-79
2023/06/07 03:10:38;;;;;;;;;;;17.50;68.20;;;;;;5028821;28;19910;-79
2023/06/07 03:13:03;;;;;;;;;;;17.40;68.40;;;;;;5030238;28;19909;-79
2023/06/07 03:15:29;;;;;;;;;;;17.40;68.40;;;;;;5012851;28;19912;-79
2023/06/07 03:17:54;;;;;;;;;;;17.40;68.40;;;;;;5030477;28;19913;-79
2023/06/07 03:20:23;;;;;;;;;;;17.30;68.60;;;;;;5033516;28;19914;-80
2023/06/07 03:22:49;;;;;;;;;;;17.40;68.50;;;;;;5034522;28;20265;-79
2023/06/07 03:25:14;;;;;;;;;;;17.40;68.30;;;;;;5033715;28;19943;-79
2023/06/07 03:27:40;;;;;;;;;;;17.40;68.00;;;;;;5036523;28;19928;-79
2023/06/07 03:30:06;;;;;;;;;;;17.50;67.90;;;;;;5037015;28;20000;-79
2023/06/07 03:32:31;;;;;;;;;;;17.40;68.80;;;;;;5038056;28;20388;-79
2023/06/07 03:34:57;;;;;;;;;;;17.30;69.00;;;;;;5030051;28;19910;-79
2023/06/07 03:37:22;;;;;;;;;;;17.30;69.10;;;;;;5042459;28;19913;-79
2023/06/07 03:39:48;;;;;;;;;;;17.20;69.80;;;;;;5036988;28;19920;-79
2023/06/07 03:42:13;;;;;;;;;;;17.20;70.20;;;;;;5035464;28;19913;-79
2023/06/07 03:44:39;;;;;;;;;;;17.10;70.50;;;;;;5036384;28;19909;-79
2023/06/07 03:47:05;;;;;;;;;;;17.10;70.20;;;;;;5036372;28;19968;-79
2023/06/07 03:49:30;;;;;;;;;;;17.10;70.20;;;;;;5019843;28;19920;-80
2023/06/07 03:51:56;;;;;;;;;;;17.10;70.70;;;;;;5041781;28;20010;-79
2023/06/07 03:54:21;;;;;;;;;;;16.90;71.10;;;;;;5034159;28;20040;-78
2023/06/07 03:56:46;;;;;;;;;;;17.00;71.40;;;;;;5042384;28;20039;-79
2023/06/07 03:59:13;;;;;;;;;;;16.90;71.90;;;;;;5037732;28;21825;-79
2023/06/07 04:01:39;;;;;;;;;;;16.80;72.50;;;;;;5029715;28;19912;-79
2023/06/07 04:04:05;;;;;;;;;;;16.90;72.50;;;;;;5037878;28;19913;-79
2023/06/07 04:06:30;;;;;;;;;;;16.80;73.00;;;;;;5033948;28;20001;-79
2023/06/07 04:08:59;;;;;;;;;;;16.70;73.30;;;;;;5036948;28;20368;-79
2023/06/07 04:11:27;;;;;;;;;;;16.60;73.90;;;;;;5033244;28;20290;-79
2023/06/07 04:13:52;;;;;;;;;;;16.50;74.90;;;;;;5037144;28;19921;-79
2023/06/07 04:16:17;;;;;;;;;;;16.50;75.40;;;;;;5036724;28;21494;-79
2023/06/07 04:18:43;;;;;;;;;;;16.60;76.20;;;;;;5029062;28;20392;-79
2023/06/07 04:21:08;;;;;;;;;;;16.50;76.10;;;;;;5037278;28;19909;-80
2023/06/07 04:23:34;;;;;;;;;;;16.40;76.80;;;;;;5022131;28;19917;-80
2023/06/07 04:26:04;;;;;;;;;;;16.30;77.50;;;;;;5043507;28;20292;-81
2023/06/07 04:28:30;;;;;;;;;;;16.20;77.90;;;;;;5040698;28;20322;-81
2023/06/07 04:30:57;;;;;;;;;;;16.10;79.10;;;;;;5041944;28;19948;-80
2023/06/07 04:33:22;;;;;;;;;;;16.00;79.60;;;;;;5024295;28;19963;-81
2023/06/07 04:35:48;;;;;;;;;;;16.00;79.20;;;;;;5035351;28;19939;-81
2023/06/07 04:38:21;;;;;;;;;;;16.00;79.80;;;;;;5039891;28;19996;-81
2023/06/07 04:40:49;;;;;;;;;;;16.00;80.00;;;;;;5038970;28;19909;-80
2023/06/07 04:43:18;;;;;;;;;;;16.00;80.50;;;;;;5040016;28;20372;-81
2023/06/07 04:45:46;;;;;;;;;;;16.10;81.00;;;;;;5028618;28;19955;-80
2023/06/07 04:48:12;;;;;;;;;;;16.00;80.20;;;;;;5038083;28;19960;-80
2023/06/07 04:50:38;;;;;;;;;;;16.10;80.60;;;;;;5050604;28;19943;-80
2023/06/07 04:53:04;;;;;;;;;;;16.00;79.90;;;;;;5031380;28;19923;-78
2023/06/07 04:55:30;;;;;;;;;;;16.00;80.10;;;;;;5044989;28;19913;-80
2023/06/07 04:58:00;;;;;;;;;;;16.00;80.60;;;;;;5043807;28;19933;-81
2023/06/07 05:00:26;;;;;;;;;;;16.20;80.90;;;;;;5042137;28;20311;-80
2023/06/07 05:02:52;;;;;;;;;;;16.20;80.20;;;;;;5042735;28;20023;-81
2023/06/07 05:05:18;;;;;;;;;;;16.20;80.10;;;;;;5041231;28;19944;-80
2023/06/07 05:07:44;;;;;;;;;;;16.10;80.10;;;;;;5030169;28;19917;-80
2023/06/07 05:10:10;;;;;;;;;;;16.10;79.90;;;;;;5040224;28;19917;-80
2023/06/07 05:12:36;;;;;;;;;;;16.10;80.00;;;;;;5035888;28;19913;-80
2023/06/07 05:15:02;;;;;;;;;;;16.20;79.60;;;;;;5038686;28;19996;-79
2023/06/07 05:17:28;;;;;;;;;;;16.10;79.30;;;;;;5038590;28;20253;-79
2023/06/07 05:19:54;;;;;;;;;;;16.00;79.00;;;;;;5039876;28;19915;-82
2023/06/07 05:22:20;;;;;;;;;;;16.10;79.60;;;;;;5015692;28;20008;-80
2023/06/07 05:24:46;;;;;;;;;;;16.20;79.10;;;;;;5037630;28;19959;-79
2023/06/07 05:27:11;;;;;;;;;;;16.20;78.70;;;;;;5038682;28;19917;-79
2023/06/07 05:29:36;;;;;;;;;;;16.20;79.70;;;;;;5039803;28;19953;-79
2023/06/07 05:32:02;;;;;;;;;;;16.10;79.20;;;;;;5045261;28;19924;-80
2023/06/07 05:34:27;;;;;;;;;;;16.20;79.30;;;;;;5034860;28;19917;-78
2023/06/07 05:36:54;;;;;;;;;;;16.30;78.40;;;;;;5027929;28;19987;-81
2023/06/07 05:39:19;;;;;;;;;;;16.30;77.70;;;;;;5061404;22;19978;-84
2023/06/07 05:41:45;;;;;;;;;;;16.20;79.10;;;;;;5094244;28;19920;-83
2023/06/07 05:44:11;;;;;;;;;;;16.20;78.50;;;;;;5087234;28;19916;-84
2023/06/07 05:46:37;;;;;;;;;;;16.10;78.60;;;;;;5072817;28;20390;-84
2023/06/07 05:49:02;;;;;;;;;;;16.00;79.50;;;;;;5080386;28;19912;-83
2023/06/07 05:51:28;;;;;;;;;;;16.10;78.90;;;;;;5089200;28;19977;-82
2023/06/07 05:53:53;;;;;;;;;;;15.90;79.00;;;;;;5075730;28;20451;-81
2023/06/07 05:56:21;;;;;;;;;;;15.90;79.30;;;;;;5083942;28;19956;-83
2023/06/07 05:58:49;;;;;;;;;;;15.90;79.70;;;;;;5077295;28;19929;-82
2023/06/07 06:01:15;;;;;;;;;;;15.80;79.20;;;;;;5082278;28;19918;-83
2023/06/07 06:03:40;;;;;;;;;;;16.00;78.70;;;;;;5085574;28;19991;-84
2023/06/07 06:06:16;;;;;;;;;;;16.00;78.90;;;;;;5082334;28;19956;-84
2023/06/07 06:08:42;;;;;;;;;;;15.90;79.50;;;;;;5103222;28;19911;-84
2023/06/07 06:11:11;;;;;;;;;;;16.00;78.80;;;;;;5093696;28;20377;-82
2023/06/07 06:13:37;;;;;;;;;;;16.00;78.60;;;;;;5092715;28;19912;-84
2023/06/07 06:16:02;;;;;;;;;;;16.00;79.10;;;;;;5093236;28;19927;-83
2023/06/07 06:18:28;;;;;;;;;;;15.90;79.30;;;;;;5090608;28;20408;-85
2023/06/07 06:20:54;;;;;;;;;;;15.90;78.20;;;;;;5088425;28;19969;-84
2023/06/07 06:23:19;;;;;;;;;;;15.80;79.10;;;;;;5091240;28;19912;-84
2023/06/07 06:25:46;;;;;;;;;;;15.80;79.40;;;;;;5090834;28;19970;-83
2023/06/07 06:28:11;;;;;;;;;;;15.90;79.50;;;;;;5089388;28;19915;-84
2023/06/07 06:30:37;;;;;;;;;;;15.90;79.30;;;;;;5093474;28;19965;-84
2023/06/07 06:33:03;;;;;;;;;;;15.90;78.80;;;;;;5090962;28;19920;-85
2023/06/07 06:35:32;;;;;;;;;;;15.90;79.10;;;;;;5088415;28;19927;-84
2023/06/07 06:37:58;;;;;;;;;;;15.80;79.50;;;;;;5093715;28;19919;-84
2023/06/07 06:40:26;;;;;;;;;;;15.90;78.90;;;;;;5085975;28;19916;-84
2023/06/07 06:42:54;;;;;;;;;;;15.80;79.50;;;;;;5101977;28;20055;-84
2023/06/07 06:45:20;;;;;;;;;;;15.80;79.80;;;;;;5083050;28;19912;-84
2023/06/07 06:47:48;;;;;;;;;;;15.80;80.90;;;;;;5094913;28;19927;-85
2023/06/07 06:50:14;;;;;;;;;;;15.80;81.20;;;;;;5094152;28;19912;-84
2023/06/07 06:52:40;;;;;;;;;;;15.80;80.60;;;;;;5092921;28;19962;-84
2023/06/07 06:55:09;;;;;;;;;;;15.90;80.80;;;;;;5126638;27;19920;-84
2023/06/07 06:57:37;;;;;;;;;;;16.00;80.20;;;;;;5109312;28;19912;-84
2023/06/07 07:00:11;;;;;;;;;;;16.00;80.30;;;;;;5094027;28;19966;-85
2023/06/07 07:02:58;;;;;;;;;;;16.00;81.00;;;;;;5093049;28;19915;-86
2023/06/07 07:05:34;;;;;;;;;;;16.00;80.30;;;;;;5093364;28;19973;-87
2023/06/07 07:08:01;;;;;;;;;;;15.90;80.70;;;;;;5098093;28;19945;-85
2023/06/07 07:10:26;;;;;;;;;;;16.00;79.90;;;;;;5081947;22;19924;-82
2023/06/07 07:12:52;;;;;;;;;;;16.00;79.80;;;;;;5082141;28;20371;-81
2023/06/07 07:15:17;;;;;;;;;;;16.00;79.60;;;;;;5087531;28;19920;-82
2023/06/07 07:17:47;;;;;;;;;;;16.10;79.10;;;;;;5083340;28;20425;-82
2023/06/07 07:20:12;;;;;;;;;;;16.00;79.90;;;;;;5080736;28;19908;-83
2023/06/07 07:22:38;;;;;;;;;;;15.80;80.00;;;;;;5078971;28;20244;-84
2023/06/07 07:25:05;;;;;;;;;;;15.80;79.90;;;;;;5088758;28;19911;-83
2023/06/07 07:27:31;;;;;;;;;;;15.70;80.20;;;;;;5083172;28;19959;-81
2023/06/07 07:29:57;;;;;;;;;;;15.80;80.90;;;;;;5076666;28;19959;-82
2023/06/07 07:32:22;;;;;;;;;;;15.90;79.90;;;;;;5076294;28;19974;-81
2023/06/07 07:34:48;;;;;;;;;;;15.80;81.10;;;;;;5070426;28;19928;-80
2023/06/07 07:37:14;;;;;;;;;;;15.90;81.00;;;;;;5070742;28;19924;-80
2023/06/07 07:39:40;;;;;;;;;;;15.70;83.00;;;;;;5085902;28;19955;-80
2023/06/07 07:42:05;;;;;;;;;;;15.90;83.40;;;;;;5081246;28;19912;-83
2023/06/07 07:44:32;;;;;;;;;;;15.90;83.40;;;;;;5069471;28;19959;-82
2023/06/07 07:46:57;;;;;;;;;;;16.00;82.50;;;;;;5089355;28;19930;-82
2023/06/07 07:49:23;;;;;;;;;;;15.80;81.80;;;;;;5091017;28;20010;-84
2023/06/07 07:51:48;;;;;;;;;;;16.00;82.60;;;;;;5091156;28;20244;-83
2023/06/07 07:54:14;;;;;;;;;;;16.10;82.20;;;;;;5091191;28;19915;-83
2023/06/07 07:56:40;;;;;;;;;;;16.10;81.90;;;;;;5080778;28;19912;-83
2023/06/07 07:59:06;;;;;;;;;;;16.10;80.90;;;;;;5085178;28;19935;-83
2023/06/07 08:01:32;;;;;;;;;;;16.10;80.80;;;;;;5081855;28;20372;-83
2023/06/07 08:03:57;;;;;;;;;;;16.00;80.90;;;;;;5091515;28;20381;-81
2023/06/07 08:06:23;;;;;;;;;;;15.80;81.20;;;;;;5090608;28;19982;-82
2023/06/07 08:08:48;;;;;;;;;;;15.80;81.90;;;;;;5090654;28;20236;-83
2023/06/07 08:11:14;;;;;;;;;;;15.70;82.10;;;;;;5079714;28;19916;-83
2023/06/07 08:13:40;;;;;;;;;;;15.80;82.60;;;;;;5107039;28;19908;-84
2023/06/07 08:16:05;;;;;;;;;;;15.70;82.80;;;;;;5087182;28;19957;-82
2023/06/07 08:18:30;;;;;;;;;;;15.80;81.50;;;;;;5072903;28;19908;-82
2023/06/07 08:20:56;;;;;;;;;;;15.80;81.20;;;;;;5073978;28;19909;-84
2023/06/07 08:23:21;;;;;;;;;;;15.90;82.30;;;;;;5075054;28;19909;-84
2023/06/07 08:25:47;;;;;;;;;;;15.90;81.50;;;;;;5078081;28;20406;-83
2023/06/07 08:28:12;;;;;;;;;;;16.10;81.80;;;;;;5083952;28;19966;-84
2023/06/07 08:30:40;;;;;;;;;;;16.20;80.70;;;;;;5086223;28;19912;-86
2023/06/07 08:33:05;;;;;;;;;;;16.30;80.80;;;;;;5094930;28;19908;-84
2023/06/07 08:35:31;;;;;;;;;;;16.20;80.20;;;;;;5089067;28;19915;-83
2023/06/07 08:37:57;;;;;;;;;;;16.20;80.90;;;;;;5086663;28;19908;-84
2023/06/07 08:40:24;;;;;;;;;;;16.20;81.60;;;;;;5092508;28;20290;-83
2023/06/07 08:42:49;;;;;;;;;;;16.30;81.10;;;;;;5086900;28;19919;-84
2023/06/07 08:45:17;;;;;;;;;;;16.30;81.70;;;;;;5111015;28;19994;-83
2023/06/07 08:47:44;;;;;;;;;;;16.30;80.60;;;;;;5092250;28;19916;-84
2023/06/07 08:50:14;;;;;;;;;;;16.30;80.50;;;;;;5110314;28;20432;-84
2023/06/07 08:52:40;;;;;;;;;;;16.50;80.50;;;;;;5098703;28;19931;-84
2023/06/07 08:55:07;;;;;;;;;;;16.50;80.40;;;;;;5098946;28;19969;-83
2023/06/07 08:57:33;;;;;;;;;;;16.50;80.10;;;;;;5097827;28;19927;-83
2023/06/07 08:59:59;;;;;;;;;;;16.30;80.70;;;;;;5090473;28;19908;-83
2023/06/07 09:02:25;;;;;;;;;;;16.30;81.50;;;;;;5081561;28;19912;-82
2023/06/07 09:04:51;;;;;;;;;;;16.40;82.40;;;;;;5078613;28;19908;-85
2023/06/07 09:07:17;;;;;;;;;;;16.60;81.80;;;;;;5085695;28;19995;-84
2023/06/07 09:09:43;;;;;;;;;;;16.80;81.10;;;;;;5100507;28;19916;-86
2023/06/07 09:12:10;;;;;;;;;;;17.00;79.40;;;;;;5075706;28;19909;-83
2023/06/07 09:14:36;;;;;;;;;;;17.10;78.60;;;;;;5074705;28;19909;-83
2023/06/07 09:17:02;;;;;;;;;;;17.00;78.80;;;;;;5074402;28;19949;-82
2023/06/07 09:19:37;;;;;;;;;;;16.90;79.80;;;;;;5082377;28;19916;-84
2023/06/07 09:22:03;;;;;;;;;;;17.00;79.00;;;;;;5083413;28;19915;-84
2023/06/07 09:24:30;;;;;;;;;;;17.00;79.60;;;;;;5072925;28;19915;-84
2023/06/07 09:26:56;;;;;;;;;;;17.00;79.10;;;;;;5071954;28;19990;-84
2023/06/07 09:29:21;;;;;;;;;;;17.10;79.20;;;;;;5077082;28;20395;-85
2023/06/07 09:31:47;;;;;;;;;;;17.10;79.50;;;;;;5109332;28;19908;-84
2023/06/07 09:34:19;;;;;;;;;;;17.20;79.30;;;;;;5081065;28;20443;-84
2023/06/07 09:36:51;;;;;;;;;;;17.30;78.40;;;;;;5079274;28;19913;-86
2023/06/07 09:39:23;;;;;;;;;;;17.20;78.30;;;;;;5081083;28;19912;-84
2023/06/07 09:41:50;;;;;;;;;;;17.30;78.20;;;;;;5083919;28;19935;-88
2023/06/07 09:44:26;;;;;;;;;;;17.10;79.30;;;;;;5085280;28;19973;-88
2023/06/07 09:46:52;;;;;;;;;;;17.10;80.30;;;;;;5091005;28;19938;-86
2023/06/07 09:49:34;;;;;;;;;;;17.10;80.60;;;;;;5080188;28;19916;-83
2023/06/07 09:52:14;;;;;;;;;;;17.10;81.40;;;;;;5080041;28;19998;-84
2023/06/07 09:54:41;;;;;;;;;;;17.20;80.50;;;;;;5107211;28;20295;-84
2023/06/07 09:57:08;;;;;;;;;;;17.10;80.40;;;;;;5079031;28;19913;-83
2023/06/07 09:59:38;;;;;;;;;;;17.20;80.70;;;;;;5089338;28;19926;-80
2023/06/07 10:02:23;;;;;;;;;;;17.20;80.90;;;;;;5086670;28;19913;-85
2023/06/07 10:04:48;;;;;;;;;;;17.20;80.80;;;;;;5076101;28;20284;-85
2023/06/07 10:07:14;;;;;;;;;;;17.00;81.10;;;;;;5104910;28;19916;-83
2023/06/07 10:09:40;;;;;;;;;;;16.80;81.70;;;;;;5106384;28;19977;-82
2023/06/07 10:12:07;;;;;;;;;;;16.80;83.00;;;;;;5073246;28;20413;-84
2023/06/07 10:14:34;;;;;;;;;;;16.90;84.00;;;;;;5078107;28;20392;-86
2023/06/07 10:17:03;;;;;;;;;;;16.80;82.40;;;;;;5076398;28;19975;-84
2023/06/07 10:19:36;;;;;;;;;;;16.90;82.90;;;;;;5092156;28;19928;-84
2023/06/07 10:22:02;;;;;;;;;;;17.00;83.20;;;;;;5083122;28;20383;-83
2023/06/07 10:24:48;;;;;;;;;;;17.10;82.50;;;;;;5092112;28;19990;-85
2023/06/07 10:27:14;;;;;;;;;;;17.10;82.70;;;;;;5086537;28;20668;-83
2023/06/07 10:29:45;;;;;;;;;;;17.10;82.40;;;;;;5090824;28;19912;-83
2023/06/07 10:32:13;;;;;;;;;;;17.20;83.00;;;;;;5124723;27;19943;-85
2023/06/07 10:34:38;;;;;;;;;;;17.30;82.10;;;;;;5090810;28;20436;-85
2023/06/07 10:37:07;;;;;;;;;;;17.50;82.70;;;;;;5080955;28;20008;-87
2023/06/07 10:39:34;;;;;;;;;;;17.50;81.00;;;;;;5072347;28;20003;-84
2023/06/07 10:42:00;;;;;;;;;;;17.60;80.70;;;;;;5078494;22;20252;-86
2023/06/07 10:44:25;;;;;;;;;;;17.70;80.90;;;;;;5061259;28;19909;-85
2023/06/07 10:47:09;;;;;;;;;;;17.70;79.20;;;;;;5056348;28;19921;-85
2023/06/07 10:49:36;;;;;;;;;;;17.70;80.20;;;;;;5055466;28;19913;-84
2023/06/07 10:52:01;;;;;;;;;;;17.80;80.80;;;;;;5057784;28;19913;-84
2023/06/07 10:54:30;;;;;;;;;;;17.90;80.40;;;;;;5051731;28;19968;-85
2023/06/07 10:56:56;;;;;;;;;;;18.10;80.00;;;;;;5041546;28;19920;-85
2023/06/07 10:59:22;;;;;;;;;;;18.30;77.50;;;;;;5042499;28;19912;-84
2023/06/07 11:01:54;;;;;;;;;;;18.30;77.60;;;;;;5050658;28;19980;-84
2023/06/07 11:04:37;;;;;;;;;;;18.20;79.10;;;;;;5038476;28;19930;-83
2023/06/07 11:07:16;;;;;;;;;;;18.20;80.40;;;;;;5037937;28;19917;-84
2023/06/07 11:09:42;;;;;;;;;;;18.20;80.30;;;;;;5058589;28;19988;-84
2023/06/07 11:12:07;;;;;;;;;;;18.50;79.70;;;;;;5050757;28;19957;-84
2023/06/07 11:14:33;;;;;;;;;;;18.50;80.20;;;;;;5057289;28;19913;-84
2023/06/07 11:16:58;;;;;;;;;;;18.60;79.30;;;;;;5056394;28;19921;-85
2023/06/07 11:19:26;;;;;;;;;;;18.50;79.00;;;;;;5049443;28;19956;-86
2023/06/07 11:22:00;;;;;;;;;;;18.50;78.90;;;;;;5040043;28;19913;-83
2023/06/07 11:24:25;;;;;;;;;;;18.60;78.60;;;;;;5037562;28;19924;-82
2023/06/07 11:26:51;;;;;;;;;;;18.50;78.30;;;;;;5060600;28;19917;-83
2023/06/07 11:29:17;;;;;;;;;;;18.50;78.30;;;;;;5048551;28;20007;-83
2023/06/07 11:31:46;;;;;;;;;;;18.70;78.60;;;;;;5047456;28;19913;-85
2023/06/07 11:34:12;;;;;;;;;;;18.90;77.90;;;;;;5065614;28;19974;-83
2023/06/07 11:36:38;;;;;;;;;;;18.90;78.50;;;;;;5030417;28;19913;-83
2023/06/07 11:39:08;;;;;;;;;;;19.00;78.50;;;;;;5050125;28;19913;-82
2023/06/07 11:41:40;;;;;;;;;;;19.30;77.10;;;;;;5032350;28;19921;-84
2023/06/07 11:44:06;;;;;;;;;;;19.50;77.60;;;;;;5063708;28;19913;-83
2023/06/07 11:46:38;;;;;;;;;;;19.50;74.20;;;;;;5031298;28;19917;-83
2023/06/07 11:49:05;;;;;;;;;;;19.30;75.90;;;;;;5038569;28;19921;-85
2023/06/07 11:51:31;;;;;;;;;;;19.30;75.10;;;;;;5069281;28;19944;-87
2023/06/07 11:53:58;;;;;;;;;;;19.10;77.20;;;;;;5037369;28;19913;-85
2023/06/07 11:56:24;;;;;;;;;;;19.10;77.10;;;;;;5065743;28;19974;-84
2023/06/07 11:58:49;;;;;;;;;;;19.20;77.40;;;;;;5043585;28;19956;-84
2023/06/07 12:01:16;;;;;;;;;;;19.30;77.10;;;;;;5049562;28;19931;-84
2023/06/07 12:03:42;;;;;;;;;;;19.30;77.60;;;;;;5038615;28;19913;-84
2023/06/07 12:06:07;;;;;;;;;;;19.30;76.20;;;;;;5054929;28;20347;-83
2023/06/07 12:08:34;;;;;;;;;;;19.20;75.70;;;;;;5058071;28;19917;-84
2023/06/07 12:11:01;;;;;;;;;;;19.30;75.50;;;;;;5036013;28;20016;-83
2023/06/07 12:13:26;;;;;;;;;;;19.30;75.50;;;;;;5051390;28;19960;-85
2023/06/07 12:15:53;;;;;;;;;;;19.10;76.10;;;;;;5033412;28;19940;-83
2023/06/07 12:18:19;;;;;;;;;;;19.10;77.00;;;;;;5053837;28;19927;-83
2023/06/07 12:20:45;;;;;;;;;;;19.10;77.00;;;;;;5037842;28;19917;-84
2023/06/07 12:23:11;;;;;;;;;;;19.30;76.10;;;;;;5033307;28;19924;-82
2023/06/07 12:25:38;;;;;;;;;;;19.80;76.40;;;;;;5037562;28;19913;-83
2023/06/07 12:28:05;;;;;;;;;;;19.90;74.70;;;;;;5038201;28;19940;-83
2023/06/07 12:30:31;;;;;;;;;;;20.00;74.40;;;;;;5059214;28;19916;-83
2023/06/07 12:32:58;;;;;;;;;;;20.20;72.70;;;;;;5040815;28;19974;-83
2023/06/07 12:35:23;;;;;;;;;;;20.00;73.80;;;;;;5054319;28;19917;-82
2023/06/07 12:37:49;;;;;;;;;;;20.10;73.50;;;;;;5046733;28;19913;-83
2023/06/07 12:40:15;;;;;;;;;;;20.10;74.20;;;;;;5054108;28;19964;-83
2023/06/07 12:42:40;;;;;;;;;;;20.10;73.50;;;;;;5035729;28;19962;-83
2023/06/07 12:45:07;;;;;;;;;;;20.20;73.40;;;;;;5054772;28;19912;-83
2023/06/07 12:47:32;;;;;;;;;;;20.40;72.60;;;;;;5054835;28;19936;-84
2023/06/07 12:49:58;;;;;;;;;;;20.10;73.90;;;;;;5028979;28;19974;-82
2023/06/07 12:52:23;;;;;;;;;;;20.20;74.00;;;;;;5036495;28;19920;-83
2023/06/07 12:54:49;;;;;;;;;;;20.30;73.40;;;;;;5050763;28;20377;-83
2023/06/07 12:57:14;;;;;;;;;;;20.40;74.20;;;;;;5053952;28;19929;-83
2023/06/07 12:59:40;;;;;;;;;;;20.40;73.90;;;;;;5055185;28;20417;-83
2023/06/07 13:02:06;;;;;;;;;;;20.50;74.30;;;;;;5033804;28;20015;-84
2023/06/07 13:04:31;;;;;;;;;;;20.50;73.90;;;;;;5045203;28;19935;-84
2023/06/07 13:06:56;;;;;;;;;;;20.70;73.80;;;;;;5038321;28;19921;-83
2023/06/07 13:09:22;;;;;;;;;;;21.00;72.90;;;;;;5037501;28;19917;-82
2023/06/07 13:11:48;;;;;;;;;;;21.10;71.30;;;;;;5029953;28;20003;-84
2023/06/07 13:14:14;;;;;;;;;;;21.10;70.90;;;;;;5069777;28;20285;-83
2023/06/07 13:16:39;;;;;;;;;;;20.90;71.80;;;;;;5048006;28;19923;-82
2023/06/07 13:19:05;;;;;;;;;;;20.90;73.00;;;;;;5071080;28;19985;-85
2023/06/07 13:21:30;;;;;;;;;;;21.00;71.10;;;;;;5030207;28;20271;-84
2023/06/07 13:23:56;;;;;;;;;;;20.90;71.20;;;;;;5039047;28;19937;-82
2023/06/07 13:26:22;;;;;;;;;;;21.10;72.10;;;;;;5036681;28;19917;-83
2023/06/07 13:28:48;;;;;;;;;;;21.20;71.30;;;;;;5056266;28;20369;-84
2023/06/07 13:31:14;;;;;;;;;;;21.30;70.10;;;;;;5029709;28;19917;-84
2023/06/07 13:33:40;;;;;;;;;;;21.30;70.80;;;;;;5052270;28;19912;-82
2023/06/07 13:36:06;;;;;;;;;;;21.50;70.10;;;;;;5048601;28;19915;-83
2023/06/07 13:38:32;;;;;;;;;;;21.60;69.00;;;;;;5048534;28;20007;-84
2023/06/07 13:40:58;;;;;;;;;;;21.50;69.00;;;;;;5046402;28;19968;-82
2023/06/07 13:43:23;;;;;;;;;;;21.20;71.40;;;;;;5035188;28;20277;-83
2023/06/07 13:45:49;;;;;;;;;;;21.50;70.50;;;;;;5037230;28;19920;-83
2023/06/07 13:48:14;;;;;;;;;;;21.40;70.10;;;;;;5016723;28;19913;-83
2023/06/07 13:50:40;;;;;;;;;;;21.40;69.50;;;;;;5016496;28;19916;-84
2023/06/07 13:53:06;;;;;;;;;;;21.20;69.60;;;;;;5033171;28;20358;-82
2023/06/07 13:55:31;;;;;;;;;;;21.30;71.20;;;;;;5033829;28;19916;-83
2023/06/07 13:57:57;;;;;;;;;;;21.30;69.60;;;;;;5057861;28;19913;-83
2023/06/07 14:00:23;;;;;;;;;;;21.50;71.10;;;;;;5035217;28;19935;-83
2023/06/07 14:02:48;;;;;;;;;;;21.60;69.70;;;;;;5041878;28;19919;-83
2023/06/07 14:05:14;;;;;;;;;;;21.80;70.60;;;;;;5028178;28;19919;-83
2023/06/07 14:07:40;;;;;;;;;;;22.00;69.90;;;;;;5028380;28;19916;-83
2023/06/07 14:10:08;;;;;;;;;;;22.10;68.50;;;;;;5036647;28;22119;-83
2023/06/07 14:12:33;;;;;;;;;;;22.20;68.40;;;;;;5018004;28;19959;-84